createdAt,value
2022-11-12T00:01:56.758Z,101702.22
2022-11-12T00:04:25.438Z,101701.38
2022-11-12T00:06:57.113Z,101710.09
2022-11-12T00:09:28.360Z,101711.38
2022-11-12T00:11:56.829Z,101703.31
2022-11-12T00:14:25.864Z,101707.31
2022-11-12T00:16:54.738Z,101697.41
2022-11-12T00:19:23.701Z,101699.22
2022-11-12T00:21:53.283Z,101702.13
2022-11-12T00:24:22.050Z,101700.75
2022-11-12T00:26:55.484Z,101700.75
2022-11-12T00:29:24.708Z,101703.31
2022-11-12T00:31:54.122Z,101693.75
2022-11-12T00:34:22.727Z,101695.56
2022-11-12T00:36:52.378Z,101695.22
2022-11-12T00:39:22.569Z,101698.22
2022-11-12T00:41:51.465Z,101700.03
2022-11-12T00:44:21.843Z,101693.88
2022-11-12T00:46:51.635Z,101699.91
2022-11-12T00:49:20.436Z,101697.25
2022-11-12T00:51:49.084Z,101692.91
2022-11-12T00:54:17.652Z,101693.75
2022-11-12T00:56:48.367Z,101697.25
2022-11-12T00:59:16.865Z,101704.28
2022-11-12T01:01:46.978Z,101699.69
2022-11-12T01:04:15.407Z,101694.16
2022-11-12T01:06:45.027Z,101696.56
2022-11-12T01:09:13.545Z,101691.63
2022-11-12T01:11:43.233Z,101686.31
2022-11-12T01:14:12.355Z,101688.84
2022-11-12T01:16:43.219Z,101691.63
2022-11-12T01:19:13.902Z,101686.19
2022-11-12T01:21:46.171Z,101674.88
2022-11-12T01:24:14.850Z,101672.59
2022-11-12T01:26:43.575Z,101665.22
2022-11-12T01:29:13.314Z,101665.81
2022-11-12T01:31:41.994Z,101665.69
2022-11-12T01:34:12.768Z,101657.25
2022-11-12T01:36:43.748Z,101654.59
2022-11-12T01:39:16.485Z,101642.97
2022-11-12T01:41:45.695Z,101645.16
2022-11-12T01:44:17.649Z,101633.41
2022-11-12T01:47:01.936Z,101636.19
2022-11-12T01:49:39.259Z,101629.44
2022-11-12T01:52:17.634Z,101624.94
2022-11-12T01:54:50.598Z,101621.44
2022-11-12T01:57:33.428Z,101620.25
2022-11-12T02:00:07.794Z,101629.56
2022-11-12T02:02:37.511Z,101636.09
2022-11-12T02:05:11.448Z,101631.72
2022-11-12T02:07:42.483Z,101630.53
2022-11-12T02:10:12.057Z,101632.81
2022-11-12T02:12:57.949Z,101634.03
2022-11-12T02:15:27.589Z,101632.84
2022-11-12T02:17:56.635Z,101641.19
2022-11-12T02:20:28.357Z,101642.38
2022-11-12T02:23:00.594Z,101641.78
2022-11-12T02:25:29.992Z,101647.31
2022-11-12T02:28:01.983Z,101653.94
2022-11-12T02:30:43.151Z,101652.63
2022-11-12T02:33:13.085Z,101658.44
2022-11-12T02:35:41.662Z,101659.31
2022-11-12T02:38:12.140Z,101662.06
2022-11-12T02:40:42.339Z,101662.34
2022-11-12T02:43:10.875Z,101657.25
2022-11-12T02:45:40.407Z,101655.28
2022-11-12T02:48:09.296Z,101648.75
2022-11-12T02:50:37.831Z,101649.41
2022-11-12T02:53:06.309Z,101643.16
2022-11-12T02:55:38.634Z,101633.50
2022-11-12T02:58:08.376Z,101627.72
2022-11-12T03:00:38.228Z,101624.66
2022-11-12T03:03:07.375Z,101622.63
2022-11-12T03:05:37.929Z,101615.09
2022-11-12T03:08:08.950Z,101618.00
2022-11-12T03:10:41.548Z,101623.16
2022-11-12T03:13:10.129Z,101618.09
2022-11-12T03:15:38.633Z,101629.91
2022-11-12T03:18:07.744Z,101633.19
2022-11-12T03:20:36.490Z,101633.44
2022-11-12T03:23:07.514Z,101627.06
2022-11-12T03:25:37.563Z,101622.59
2022-11-12T03:28:09.550Z,101609.78
2022-11-12T03:30:40.094Z,101617.03
2022-11-12T03:33:10.763Z,101619.56
2022-11-12T03:35:41.030Z,101628.16
2022-11-12T03:38:09.662Z,101615.13
2022-11-12T03:40:38.626Z,101609.69
2022-11-12T03:43:08.451Z,101606.31
2022-11-12T03:45:37.210Z,101600.75
2022-11-12T03:48:11.900Z,101602.22
2022-11-12T03:50:42.686Z,101598.34
2022-11-12T03:53:11.268Z,101602.78
2022-11-12T03:55:40.956Z,101608.00
2022-11-12T03:58:16.876Z,101598.44
2022-11-12T04:00:46.099Z,101608.09
2022-11-12T04:03:14.771Z,101617.06
2022-11-12T04:06:01.649Z,101616.22
2022-11-12T04:08:39.480Z,101613.94
2022-11-12T04:11:12.791Z,101616.59
2022-11-12T04:13:47.816Z,101623.09
2022-11-12T04:16:35.965Z,101620.31
2022-11-12T04:19:23.407Z,101617.31
2022-11-12T04:21:56.384Z,101614.28
2022-11-12T04:24:49.198Z,101621.16
2022-11-12T04:27:19.756Z,101617.19
2022-11-12T04:30:08.511Z,101608.22
2022-11-12T04:32:39.211Z,101615.22
2022-11-12T04:35:11.175Z,101614.53
2022-11-12T04:37:47.901Z,101619.84
2022-11-12T04:40:43.851Z,101611.25
2022-11-12T04:43:31.371Z,101624.41
2022-11-12T04:46:03.220Z,101622.00
2022-11-12T04:48:33.047Z,101622.97
2022-11-12T04:51:04.183Z,101627.53
2022-11-12T04:53:32.965Z,101627.53
2022-11-12T04:56:04.984Z,101619.56
2022-11-12T04:58:34.531Z,101624.03
2022-11-12T05:01:07.789Z,101616.06
2022-11-12T05:03:36.757Z,101612.44
2022-11-12T05:06:27.495Z,101612.94
2022-11-12T05:08:58.338Z,101611.09
2022-11-12T05:11:26.971Z,101617.25
2022-11-12T05:13:56.364Z,101605.09
2022-11-12T05:16:26.238Z,101604.94
2022-11-12T05:18:55.731Z,101608.59
2022-11-12T05:21:43.817Z,101623.56
2022-11-12T05:24:27.754Z,101612.19
2022-11-12T05:27:01.227Z,101611.34
2022-11-12T05:29:29.630Z,101614.13
2022-11-12T05:32:00.029Z,101600.22
2022-11-12T05:34:28.651Z,101608.31
2022-11-12T05:36:57.450Z,101616.28
2022-11-12T05:39:27.049Z,101603.72
2022-11-12T05:42:13.564Z,101602.88
2022-11-12T05:44:42.717Z,101604.22
2022-11-12T05:47:12.567Z,101608.19
2022-11-12T05:49:44.116Z,101609.16
2022-11-12T05:52:13.991Z,101607.47
2022-11-12T05:54:44.825Z,101601.31
2022-11-12T05:57:13.475Z,101599.63
2022-11-12T05:59:42.044Z,101601.41
2022-11-12T06:02:12.447Z,101597.91
2022-11-12T06:04:49.225Z,101601.53
2022-11-12T06:07:18.140Z,101598.75
2022-11-12T06:09:47.451Z,101591.97
2022-11-12T06:12:16.428Z,101577.38
2022-11-12T06:14:45.471Z,101592.22
2022-11-12T06:17:19.134Z,101581.72
2022-11-12T06:19:47.566Z,101585.25
2022-11-12T06:22:16.351Z,101588.84
2022-11-12T06:24:52.090Z,101585.34
2022-11-12T06:27:20.490Z,101587.16
2022-11-12T06:29:49.170Z,101586.09
2022-11-12T06:32:20.779Z,101583.03
2022-11-12T06:34:50.930Z,101584.13
2022-11-12T06:37:19.642Z,101577.63
2022-11-12T06:39:48.380Z,101579.53
2022-11-12T06:42:20.042Z,101583.66
2022-11-12T06:44:48.647Z,101577.84
2022-11-12T06:47:17.822Z,101575.19
2022-11-12T06:49:48.834Z,101578.91
2022-11-12T06:52:17.750Z,101566.72
2022-11-12T06:54:47.366Z,101574.06
2022-11-12T06:57:17.253Z,101574.91
2022-11-12T06:59:45.512Z,101580.34
2022-11-12T07:02:14.472Z,101591.31
2022-11-12T07:04:44.994Z,101586.72
2022-11-12T07:07:16.106Z,101589.38
2022-11-12T07:09:50.317Z,101593.00
2022-11-12T07:12:31.270Z,101585.16
2022-11-12T07:15:02.734Z,101593.00
2022-11-12T07:18:03.401Z,101589.63
2022-11-12T07:20:44.794Z,101604.47
2022-11-12T07:23:15.026Z,101607.47
2022-11-12T07:25:45.448Z,101618.56
2022-11-12T07:28:22.305Z,101622.59
2022-11-12T07:30:57.254Z,101630.34
2022-11-12T07:33:26.332Z,101636.22
2022-11-12T07:36:03.791Z,101646.84
2022-11-12T07:38:36.164Z,101648.66
2022-11-12T07:41:09.705Z,101660.34
2022-11-12T07:43:39.553Z,101655.97
2022-11-12T07:46:11.215Z,101655.97
2022-11-12T07:48:40.571Z,101658.75
2022-11-12T07:51:13.593Z,101664.78
2022-11-12T07:53:44.891Z,101669.16
2022-11-12T07:56:15.440Z,101664.56
2022-11-12T07:58:46.992Z,101659.13
2022-11-12T08:01:25.626Z,101664.34
2022-11-12T08:03:55.602Z,101668.34
2022-11-12T08:06:24.471Z,101662.53
2022-11-12T08:08:56.172Z,101659.75
2022-11-12T08:11:27.257Z,101662.00
2022-11-12T08:13:55.743Z,101654.88
2022-11-12T08:16:24.841Z,101663.44
2022-11-12T08:18:55.231Z,101658.47
2022-11-12T08:21:23.818Z,101661.44
2022-11-12T08:23:55.392Z,101668.56
2022-11-12T08:26:27.095Z,101674.22
2022-11-12T08:28:55.713Z,101678.25
2022-11-12T08:31:25.019Z,101668.06
2022-11-12T08:33:55.684Z,101685.50
2022-11-12T08:36:24.096Z,101691.91
2022-11-12T08:38:55.208Z,101695.38
2022-11-12T08:41:25.490Z,101705.25
2022-11-12T08:43:54.030Z,101711.00
2022-11-12T08:46:22.704Z,101713.44
2022-11-12T08:48:51.648Z,101710.69
2022-11-12T08:51:21.272Z,101709.28
2022-11-12T08:53:49.989Z,101712.69
2022-11-12T08:56:18.359Z,101707.59
2022-11-12T08:58:48.523Z,101707.59
2022-11-12T09:01:18.330Z,101714.16
2022-11-12T09:03:46.883Z,101708.66
2022-11-12T09:06:15.257Z,101707.63
2022-11-12T09:08:43.754Z,101706.66
2022-11-12T09:11:12.451Z,101701.88
2022-11-12T09:13:40.872Z,101703.03
2022-11-12T09:16:12.600Z,101703.38
2022-11-12T09:18:41.003Z,101704.00
2022-11-12T09:21:12.658Z,101700.84
2022-11-12T09:23:41.400Z,101698.50
2022-11-12T09:26:11.952Z,101710.91
2022-11-12T09:28:43.167Z,101706.56
2022-11-12T09:31:13.323Z,101718.09
2022-11-12T09:33:41.791Z,101710.78
2022-11-12T09:36:12.291Z,101712.91
2022-11-12T09:38:42.174Z,101711.31
2022-11-12T09:41:24.176Z,101709.75
2022-11-12T09:43:54.991Z,101708.66
2022-11-12T09:46:39.254Z,101696.25
2022-11-12T09:49:14.187Z,101715.06
2022-11-12T09:51:49.899Z,101704.50
2022-11-12T09:54:25.590Z,101701.88
2022-11-12T09:56:55.468Z,101702.94
2022-11-12T09:59:27.960Z,101702.63
2022-11-12T10:02:12.117Z,101696.69
2022-11-12T10:05:05.149Z,101690.84
2022-11-12T10:07:48.045Z,101696.97
2022-11-12T10:10:19.602Z,101692.09
2022-11-12T10:13:07.999Z,101687.88
2022-11-12T10:16:15.789Z,101689.97
2022-11-12T10:19:08.542Z,101688.91
2022-11-12T10:21:43.640Z,101688.41
2022-11-12T10:24:14.006Z,101683.81
2022-11-12T10:26:42.871Z,101685.75
2022-11-12T10:29:21.202Z,101680.53
2022-11-12T10:31:51.001Z,101691.91
2022-11-12T10:34:25.773Z,101696.88
2022-11-12T10:37:01.915Z,101703.81
2022-11-12T10:39:36.672Z,101704.72
2022-11-12T10:42:10.361Z,101708.44
2022-11-12T10:44:42.789Z,101700.06
2022-11-12T10:47:29.429Z,101699.97
2022-11-12T10:50:20.837Z,101707.94
2022-11-12T10:53:01.825Z,101698.69
2022-11-12T10:55:31.994Z,101696.78
2022-11-12T10:58:16.612Z,101675.84
2022-11-12T11:01:02.227Z,101673.19
2022-11-12T11:03:36.246Z,101669.50
2022-11-12T11:06:19.483Z,101656.75
2022-11-12T11:08:50.214Z,101675.75
2022-11-12T11:11:26.624Z,101660.69
2022-11-12T11:13:57.402Z,101664.72
2022-11-12T11:16:27.464Z,101651.88
2022-11-12T11:18:59.248Z,101652.81
2022-11-12T11:22:02.959Z,101655.28
2022-11-12T11:24:47.852Z,101647.97
2022-11-12T11:27:31.870Z,101652.31
2022-11-12T11:30:10.476Z,101655.16
2022-11-12T11:33:17.050Z,101654.13
2022-11-12T11:35:59.043Z,101651.84
2022-11-12T11:38:39.966Z,101649.63
2022-11-12T11:41:22.754Z,101644.31
2022-11-12T11:44:03.553Z,101640.16
2022-11-12T11:46:47.525Z,101638.25
2022-11-12T11:49:34.214Z,101627.31
2022-11-12T11:52:16.265Z,101626.22
2022-11-12T11:55:05.086Z,101628.28
2022-11-12T11:57:44.111Z,101617.09
2022-11-12T12:00:19.791Z,101621.16
2022-11-12T12:03:21.956Z,101623.00
2022-11-12T12:06:20.508Z,101617.69
2022-11-12T12:09:14.241Z,101598.47
2022-11-12T12:11:54.408Z,101589.38
2022-11-12T12:14:38.322Z,101582.50
2022-11-12T12:17:20.652Z,101580.00
2022-11-12T12:20:02.384Z,101582.16
2022-11-12T12:22:39.941Z,101577.06
2022-11-12T12:25:15.311Z,101567.69
2022-11-12T12:27:52.677Z,101565.03
2022-11-12T12:30:23.376Z,101580.91
2022-11-12T12:32:58.652Z,101574.63
2022-11-12T12:35:32.883Z,101566.94
2022-11-12T12:38:13.772Z,101561.38
2022-11-12T12:40:50.242Z,101556.06
2022-11-12T12:43:28.674Z,101558.75
2022-11-12T12:45:59.392Z,101552.00
2022-11-12T12:48:32.969Z,101552.63
2022-11-12T12:51:02.454Z,101542.13
2022-11-12T12:53:35.543Z,101530.44
2022-11-12T12:56:06.160Z,101526.47
2022-11-12T12:58:44.726Z,101518.75
2022-11-12T13:01:29.277Z,101515.97
2022-11-12T13:04:02.463Z,101508.47
2022-11-12T13:06:36.239Z,101500.25
2022-11-12T13:09:08.311Z,101506.28
2022-11-12T13:12:11.910Z,101493.50
2022-11-12T13:14:54.437Z,101493.75
2022-11-12T13:17:53.270Z,101491.94
2022-11-12T13:20:40.589Z,101487.59
2022-11-12T13:23:57.477Z,101486.13
2022-11-12T13:26:59.463Z,101474.06
2022-11-12T13:29:48.296Z,101480.06
2022-11-12T13:32:43.301Z,101470.31
2022-11-12T13:35:35.183Z,101469.97
2022-11-12T13:38:16.115Z,101470.81
2022-11-12T13:40:48.156Z,101476.22
2022-11-12T13:43:33.109Z,101479.38
2022-11-12T13:46:22.717Z,101472.59
2022-11-12T13:48:58.633Z,101472.59
2022-11-12T13:51:36.864Z,101472.38
2022-11-12T13:54:29.560Z,101470.06
2022-11-12T13:56:57.950Z,101470.31
2022-11-12T13:59:27.857Z,101466.94
2022-11-12T14:01:58.158Z,101459.19
2022-11-12T14:04:28.398Z,101458.59
2022-11-12T14:07:05.666Z,101459.19
2022-11-12T14:09:57.120Z,101461.63
2022-11-12T14:12:56.029Z,101456.66
2022-11-12T14:15:38.859Z,101455.81
2022-11-12T14:18:18.961Z,101456.91
2022-11-12T14:20:47.521Z,101455.66
2022-11-12T14:23:24.192Z,101465.22
2022-11-12T14:25:55.386Z,101465.94
2022-11-12T14:28:29.721Z,101471.47
2022-11-12T14:30:59.817Z,101463.97
2022-11-12T14:33:31.159Z,101466.91
2022-11-12T14:36:04.794Z,101467.47
2022-11-12T14:38:37.168Z,101461.81
2022-11-12T14:41:10.367Z,101457.09
2022-11-12T14:43:43.030Z,101458.41
2022-11-12T14:46:24.151Z,101456.72
2022-11-12T14:49:04.656Z,101458.03
2022-11-12T14:51:38.070Z,101454.06
2022-11-12T14:54:08.991Z,101447.88
2022-11-12T14:56:42.183Z,101447.16
2022-11-12T14:59:14.329Z,101447.38
2022-11-12T15:05:00.758Z,101440.41
2022-11-12T15:07:32.444Z,101443.13
2022-11-12T15:10:02.390Z,101449.41
2022-11-12T15:12:34.276Z,101426.78
2022-11-12T15:15:10.041Z,101433.69
2022-11-12T15:17:39.222Z,101426.22
2022-11-12T15:20:16.661Z,101429.78
2022-11-12T15:22:51.508Z,101420.09
2022-11-12T15:25:23.749Z,101412.16
2022-11-12T15:27:52.781Z,101417.34
2022-11-12T15:30:25.093Z,101414.72
2022-11-12T15:33:10.261Z,101412.16
2022-11-12T15:35:44.428Z,101412.06
2022-11-12T15:38:19.763Z,101403.66
2022-11-12T15:40:57.277Z,101397.81
2022-11-12T15:43:30.472Z,101391.44
2022-11-12T15:46:00.023Z,101391.78
2022-11-12T15:48:29.054Z,101392.06
2022-11-12T15:50:59.763Z,101382.97
2022-11-12T15:53:29.251Z,101379.56
2022-11-12T15:55:58.540Z,101376.91
2022-11-12T15:58:34.548Z,101384.69
2022-11-12T16:01:03.669Z,101375.84
2022-11-12T16:03:33.656Z,101378.84
2022-11-12T16:06:09.188Z,101371.13
2022-11-12T16:08:41.164Z,101377.19
2022-11-12T16:11:31.759Z,101372.22
2022-11-12T16:14:00.161Z,101377.41
2022-11-12T16:16:28.728Z,101379.44
2022-11-12T16:18:57.239Z,101378.59
2022-11-12T16:21:27.539Z,101385.56
2022-11-12T16:23:56.317Z,101392.06
2022-11-12T16:26:32.268Z,101394.13
2022-11-12T16:29:01.313Z,101394.47
2022-11-12T16:31:29.743Z,101395.69
2022-11-12T16:33:58.430Z,101403.63
2022-11-12T16:36:28.525Z,101398.31
2022-11-12T16:38:56.894Z,101396.41
2022-11-12T16:41:25.626Z,101397.34
2022-11-12T16:43:55.077Z,101396.03
2022-11-12T16:46:30.544Z,101403.00
2022-11-12T16:48:59.021Z,101405.78
2022-11-12T16:51:29.520Z,101399.66
2022-11-12T16:53:58.294Z,101398.97
2022-11-12T16:56:27.646Z,101396.44
2022-11-12T16:58:56.410Z,101398.59
2022-11-12T17:01:27.141Z,101403.03
2022-11-12T17:03:56.843Z,101397.72
2022-11-12T17:06:34.222Z,101401.59
2022-11-12T17:09:05.111Z,101407.00
2022-11-12T17:11:34.277Z,101408.69
2022-11-12T17:14:03.804Z,101403.91
2022-11-12T17:16:33.158Z,101403.66
2022-11-12T17:19:03.053Z,101396.44
2022-11-12T17:21:31.842Z,101398.63
2022-11-12T17:24:01.055Z,101397.44
2022-11-12T17:26:31.715Z,101389.03
2022-11-12T17:29:07.635Z,101394.78
2022-11-12T17:31:37.398Z,101402.50
2022-11-12T17:34:08.135Z,101395.06
2022-11-12T17:36:42.149Z,101399.41
2022-11-12T17:39:14.158Z,101397.94
2022-11-12T17:41:44.093Z,101406.00
2022-11-12T17:44:17.108Z,101405.03
2022-11-12T17:46:46.807Z,101396.88
2022-11-12T17:49:16.250Z,101396.13
2022-11-12T17:51:44.605Z,101407.59
2022-11-12T17:54:13.168Z,101408.88
2022-11-12T17:56:41.945Z,101402.00
2022-11-12T17:59:12.370Z,101405.25
2022-11-12T18:01:41.214Z,101401.41
2022-11-12T18:04:13.115Z,101408.38
2022-11-12T18:06:42.253Z,101408.25
2022-11-12T18:09:15.619Z,101409.22
2022-11-12T18:11:46.026Z,101411.97
2022-11-12T18:14:16.386Z,101396.72
2022-11-12T18:16:46.882Z,101404.53
2022-11-12T18:19:15.836Z,101396.47
2022-11-12T18:21:45.665Z,101395.00
2022-11-12T18:24:16.004Z,101386.53
2022-11-12T18:26:45.012Z,101386.81
2022-11-12T18:29:15.517Z,101391.50
2022-11-12T18:31:44.890Z,101379.34
2022-11-12T18:34:16.160Z,101367.88
2022-11-12T18:36:44.767Z,101384.16
2022-11-12T18:39:13.483Z,101370.88
2022-11-12T18:41:42.287Z,101374.38
2022-11-12T18:44:11.676Z,101372.56
2022-11-12T18:46:41.643Z,101380.28
2022-11-12T18:49:10.020Z,101376.69
2022-11-12T18:51:39.673Z,101382.69
2022-11-12T18:54:14.148Z,101378.19
2022-11-12T18:56:42.872Z,101380.13
2022-11-12T18:59:12.980Z,101380.84
2022-11-12T19:01:42.957Z,101388.28
2022-11-12T19:04:13.818Z,101394.56
2022-11-12T19:06:42.485Z,101407.81
2022-11-12T19:09:11.989Z,101402.28
2022-11-12T19:11:40.517Z,101401.66
2022-11-12T19:14:09.891Z,101391.56
2022-11-12T19:16:42.489Z,101385.44
2022-11-12T19:19:14.053Z,101382.16
2022-11-12T19:21:42.887Z,101380.59
2022-11-12T19:24:12.984Z,101379.78
2022-11-12T19:26:43.452Z,101378.66
2022-11-12T19:29:11.812Z,101379.03
2022-11-12T19:31:41.011Z,101377.47
2022-11-12T19:34:13.042Z,101376.91
2022-11-12T19:36:44.877Z,101378.72
2022-11-12T19:39:15.152Z,101381.28
2022-11-12T19:41:45.303Z,101375.38
2022-11-12T19:44:13.813Z,101378.50
2022-11-12T19:46:42.456Z,101378.59
2022-11-12T19:49:12.666Z,101378.97
2022-11-12T19:51:41.104Z,101386.59
2022-11-12T19:54:09.706Z,101391.16
2022-11-12T19:56:38.254Z,101382.69
2022-11-12T19:59:06.592Z,101387.88
2022-11-12T20:01:35.052Z,101385.22
2022-11-12T20:04:03.566Z,101384.78
2022-11-12T20:06:33.318Z,101373.78
2022-11-12T20:09:01.887Z,101371.72
2022-11-12T20:11:30.968Z,101380.75
2022-11-12T20:13:59.554Z,101359.16
2022-11-12T20:16:28.169Z,101368.53
2022-11-12T20:18:57.124Z,101367.28
2022-11-12T20:21:26.653Z,101359.81
2022-11-12T20:23:56.633Z,101369.56
2022-11-12T20:26:26.979Z,101365.47
2022-11-12T20:28:55.473Z,101365.75
2022-11-12T20:31:26.634Z,101369.56
2022-11-12T20:33:57.526Z,101375.09
2022-11-12T20:36:26.162Z,101372.56
2022-11-12T20:38:54.878Z,101384.09
2022-11-12T20:41:26.426Z,101367.91
2022-11-12T20:43:57.414Z,101368.91
2022-11-12T20:46:26.890Z,101356.38
2022-11-12T20:48:55.742Z,101354.59
2022-11-12T20:51:29.347Z,101346.00
2022-11-12T20:54:00.685Z,101340.84
2022-11-12T20:56:32.765Z,101338.31
2022-11-12T20:59:01.812Z,101342.16
2022-11-12T21:01:31.973Z,101350.19
2022-11-12T21:04:00.713Z,101348.75
2022-11-12T21:06:30.634Z,101343.69
2022-11-12T21:09:01.905Z,101353.66
2022-11-12T21:11:31.811Z,101356.19
2022-11-12T21:14:02.363Z,101354.84
2022-11-12T21:16:30.993Z,101368.34
2022-11-12T21:19:02.464Z,101375.34
2022-11-12T21:21:31.800Z,101384.25
2022-11-12T21:24:04.575Z,101373.53
2022-11-12T21:26:35.013Z,101360.44
2022-11-12T21:29:05.080Z,101359.94
2022-11-12T21:31:33.814Z,101360.91
2022-11-12T21:34:04.867Z,101355.00
2022-11-12T21:36:35.835Z,101348.84
2022-11-12T21:39:05.170Z,101361.69
2022-11-12T21:41:35.549Z,101362.44
2022-11-12T21:44:04.042Z,101359.31
2022-11-12T21:46:33.448Z,101358.13
2022-11-12T21:49:01.950Z,101350.81
2022-11-12T21:51:33.434Z,101342.94
2022-11-12T21:54:04.444Z,101344.75
2022-11-12T21:56:35.059Z,101329.47
2022-11-12T21:59:04.720Z,101342.00
2022-11-12T22:01:36.570Z,101333.94
2022-11-12T22:04:08.239Z,101339.22
2022-11-12T22:06:39.024Z,101339.22
2022-11-12T22:09:07.994Z,101332.03
2022-11-12T22:11:37.961Z,101331.91
2022-11-12T22:14:06.833Z,101328.44
2022-11-12T22:16:35.713Z,101319.41
2022-11-12T22:19:04.815Z,101310.81
2022-11-12T22:21:39.648Z,101310.47
2022-11-12T22:24:10.757Z,101316.63
2022-11-12T22:26:41.362Z,101306.00
2022-11-12T22:29:09.998Z,101312.50
2022-11-12T22:31:38.332Z,101301.78
2022-11-12T22:34:08.303Z,101296.47
2022-11-12T22:36:37.002Z,101293.09
2022-11-12T22:39:07.406Z,101290.56
2022-11-12T22:41:35.778Z,101284.41
2022-11-12T22:44:06.288Z,101282.50
2022-11-12T22:46:36.609Z,101282.28
2022-11-12T22:49:05.962Z,101282.28
2022-11-12T22:51:36.248Z,101274.31
2022-11-12T22:54:08.064Z,101267.28
2022-11-12T22:56:37.083Z,101259.13
2022-11-12T22:59:07.485Z,101252.47
2022-11-12T23:01:37.343Z,101255.63
2022-11-12T23:04:08.276Z,101249.72
2022-11-12T23:06:37.906Z,101246.56
2022-11-12T23:09:07.618Z,101247.66
2022-11-12T23:11:38.929Z,101245.13
2022-11-12T23:14:09.130Z,101244.53
2022-11-12T23:16:37.619Z,101251.75
2022-11-12T23:19:06.467Z,101239.69
2022-11-12T23:21:35.262Z,101240.78
2022-11-12T23:24:04.170Z,101232.97
2022-11-12T23:26:34.035Z,101219.94
2022-11-12T23:29:03.279Z,101222.97
2022-11-12T23:31:34.497Z,101212.22
2022-11-12T23:34:03.087Z,101208.38
2022-11-12T23:36:32.523Z,101203.91
2022-11-12T23:39:01.231Z,101198.50
2022-11-12T23:41:30.123Z,101190.03
2022-11-12T23:43:59.952Z,101193.31
2022-11-12T23:46:28.672Z,101175.31
2022-11-12T23:48:58.865Z,101174.38
2022-11-12T23:51:27.609Z,101173.91
2022-11-12T23:53:55.994Z,101164.50
2022-11-12T23:56:24.762Z,101159.91
2022-11-12T23:58:55.594Z,101168.34
